createdAt,value
2023-02-14T00:37:19.186Z,441.00
2023-02-14T00:38:19.138Z,441.00
2023-02-14T00:39:19.090Z,441.00
2023-02-14T00:40:19.046Z,441.00
2023-02-14T00:41:19.030Z,442.00
2023-02-14T00:42:18.941Z,442.00
2023-02-14T00:43:18.904Z,443.00
2023-02-14T00:44:18.864Z,442.00
2023-02-14T00:45:18.787Z,443.00
2023-02-14T00:46:18.756Z,444.00
2023-02-14T00:47:18.726Z,448.00
2023-02-14T00:48:18.648Z,447.00
2023-02-14T00:49:18.643Z,442.00
2023-02-14T00:50:18.572Z,444.00
2023-02-14T00:51:18.517Z,445.00
2023-02-14T00:52:18.504Z,440.00
2023-02-14T00:53:18.416Z,439.00
2023-02-14T00:54:18.353Z,439.00
2023-02-14T00:55:18.306Z,440.00
2023-02-14T00:56:18.274Z,439.00
2023-02-14T00:57:18.237Z,440.00
2023-02-14T00:58:18.177Z,443.00
2023-02-14T00:59:18.132Z,443.00
2023-02-14T01:00:18.101Z,445.00
2023-02-14T01:01:18.060Z,443.00
2023-02-14T01:02:18.012Z,441.00
2023-02-14T01:03:17.944Z,436.00
2023-02-14T01:04:17.855Z,438.00
2023-02-14T01:05:17.818Z,439.00
2023-02-14T01:06:17.756Z,438.00
2023-02-14T01:07:17.721Z,437.00
2023-02-14T01:08:17.770Z,436.00
2023-02-14T01:09:17.649Z,437.00
2023-02-14T01:10:17.572Z,437.00
2023-02-14T01:11:17.560Z,433.00
2023-02-14T01:12:17.457Z,433.00
2023-02-14T01:13:17.476Z,431.00
2023-02-14T01:14:17.374Z,430.00
2023-02-14T01:15:17.363Z,431.00
2023-02-14T01:16:17.311Z,432.00
2023-02-14T01:17:17.282Z,429.00
2023-02-14T01:18:17.216Z,431.00
2023-02-14T01:19:17.120Z,432.00
2023-02-14T01:20:17.097Z,436.00
2023-02-14T01:21:17.066Z,437.00
2023-02-14T01:22:17.018Z,439.00
2023-02-14T01:23:16.937Z,441.00
2023-02-14T01:24:16.911Z,439.00
2023-02-14T01:25:16.888Z,439.00
2023-02-14T01:26:16.858Z,438.00
2023-02-14T01:27:16.799Z,435.00
2023-02-14T01:28:16.744Z,434.00
2023-02-14T01:29:16.687Z,435.00
2023-02-14T01:30:16.731Z,434.00
2023-02-14T01:31:16.712Z,434.00
2023-02-14T01:32:16.586Z,433.00
2023-02-14T01:33:16.497Z,436.00
2023-02-14T01:34:16.425Z,438.00
2023-02-14T01:35:16.396Z,438.00
2023-02-14T01:36:16.319Z,438.00
2023-02-14T01:37:16.291Z,436.00
2023-02-14T01:38:16.293Z,435.00
2023-02-14T01:39:16.213Z,437.00
2023-02-14T01:40:16.154Z,438.00
2023-02-14T01:41:16.105Z,435.00
2023-02-14T01:42:16.155Z,436.00
2023-02-14T01:43:16.017Z,435.00
2023-02-14T01:44:15.961Z,436.00
2023-02-14T01:45:15.918Z,437.00
2023-02-14T01:46:15.936Z,438.00
2023-02-14T01:47:15.849Z,436.00
2023-02-14T01:48:15.772Z,435.00
2023-02-14T01:49:15.768Z,435.00
2023-02-14T01:50:15.680Z,435.00
2023-02-14T01:51:15.649Z,436.00
2023-02-14T01:52:15.590Z,435.00
2023-02-14T01:53:15.560Z,438.00
2023-02-14T01:54:15.517Z,440.00
2023-02-14T01:55:15.491Z,440.00
2023-02-14T01:56:15.430Z,437.00
2023-02-14T01:57:15.363Z,441.00
2023-02-14T01:58:15.344Z,441.00
2023-02-14T01:59:15.311Z,438.00
2023-02-14T02:00:15.220Z,438.00
2023-02-14T02:01:15.179Z,436.00
2023-02-14T02:02:15.141Z,435.00
2023-02-14T02:03:15.080Z,436.00
2023-02-14T02:04:15.025Z,434.00
2023-02-14T02:05:14.962Z,434.00
2023-02-14T02:06:14.935Z,436.00
2023-02-14T02:07:14.899Z,436.00
2023-02-14T02:08:14.842Z,436.00
2023-02-14T02:09:14.813Z,438.00
2023-02-14T02:10:14.759Z,437.00
2023-02-14T02:11:14.670Z,436.00
2023-02-14T02:12:14.620Z,438.00
2023-02-14T02:13:14.576Z,436.00
2023-02-14T02:14:14.592Z,440.00
2023-02-14T02:15:14.483Z,441.00
2023-02-14T02:16:14.440Z,439.00
2023-02-14T02:17:14.386Z,438.00
2023-02-14T02:18:14.338Z,440.00
2023-02-14T02:19:14.252Z,439.00
2023-02-14T02:20:14.204Z,440.00
2023-02-14T02:21:14.158Z,440.00
2023-02-14T02:22:14.111Z,439.00
2023-02-14T02:23:14.078Z,441.00
2023-02-14T02:24:13.992Z,439.00
2023-02-14T02:25:13.961Z,441.00
2023-02-14T02:49:12.795Z,439.00
2023-02-14T02:50:12.698Z,438.00
2023-02-14T02:51:12.657Z,435.00
2023-02-14T02:52:12.578Z,434.00
2023-02-14T02:53:12.520Z,436.00
2023-02-14T02:54:12.473Z,438.00
2023-02-14T02:55:12.427Z,440.00
2023-02-14T02:56:12.352Z,437.00
2023-02-14T02:57:12.290Z,436.00
2023-02-14T02:58:12.223Z,434.00
2023-02-14T02:59:12.202Z,435.00
2023-02-14T03:00:12.135Z,439.00
2023-02-14T03:01:12.112Z,437.00
2023-02-14T03:02:12.012Z,436.00
2023-02-14T03:03:12.072Z,435.00
2023-02-14T03:04:11.927Z,434.00
2023-02-14T03:05:11.924Z,438.00
2023-02-14T03:07:11.753Z,438.00
2023-02-14T03:08:11.708Z,436.00
2023-02-14T03:09:11.663Z,435.00
2023-02-14T03:10:11.589Z,434.00
2023-02-14T03:11:11.555Z,435.00
2023-02-14T03:12:11.495Z,436.00
2023-02-14T03:13:11.442Z,434.00
2023-02-14T03:14:11.428Z,436.00
2023-02-14T03:15:11.322Z,434.00
2023-02-14T03:16:11.325Z,433.00
2023-02-14T03:17:11.248Z,437.00
2023-02-14T03:18:11.166Z,436.00
2023-02-14T03:19:11.152Z,436.00
2023-02-14T03:20:11.075Z,436.00
2023-02-14T03:21:11.021Z,435.00
2023-02-14T03:22:10.980Z,437.00
2023-02-14T03:23:10.974Z,435.00
2023-02-14T03:24:10.873Z,434.00
2023-02-14T03:25:10.830Z,433.00
2023-02-14T03:26:10.779Z,437.00
2023-02-14T03:27:10.737Z,434.00
2023-02-14T03:28:10.686Z,439.00
2023-02-14T03:29:10.652Z,438.00
2023-02-14T03:30:10.603Z,438.00
2023-02-14T03:31:10.594Z,440.00
2023-02-14T03:32:10.726Z,442.00
2023-02-14T03:33:10.437Z,440.00
2023-02-14T03:34:10.409Z,438.00
2023-02-14T03:35:10.375Z,435.00
2023-02-14T03:36:10.292Z,435.00
2023-02-14T03:37:10.230Z,437.00
2023-02-14T03:38:10.193Z,440.00
2023-02-14T03:39:10.145Z,440.00
2023-02-14T03:40:10.116Z,441.00
2023-02-14T03:41:10.049Z,435.00
2023-02-14T03:42:10.025Z,437.00
2023-02-14T03:43:09.993Z,439.00
2023-02-14T03:44:09.896Z,441.00
2023-02-14T03:45:09.926Z,443.00
2023-02-14T03:46:09.835Z,442.00
2023-02-14T03:47:09.785Z,437.00
2023-02-14T03:48:09.709Z,438.00
2023-02-14T03:49:09.684Z,438.00
2023-02-14T03:50:09.635Z,441.00
2023-02-14T03:51:09.573Z,444.00
2023-02-14T03:52:09.514Z,443.00
2023-02-14T03:53:09.488Z,442.00
2023-02-14T03:54:09.420Z,447.00
2023-02-14T03:55:09.385Z,445.00
2023-02-14T03:56:09.325Z,447.00
2023-02-14T03:57:09.293Z,450.00
2023-02-14T03:58:09.242Z,445.00
2023-02-14T03:59:09.167Z,447.00
2023-02-14T04:00:09.145Z,447.00
2023-02-14T04:01:09.057Z,445.00
2023-02-14T04:02:09.022Z,448.00
2023-02-14T04:03:09.012Z,445.00
2023-02-14T04:04:08.910Z,442.00
2023-02-14T04:05:08.873Z,442.00
2023-02-14T04:06:08.840Z,442.00
2023-02-14T04:07:08.753Z,443.00
2023-02-14T04:08:08.713Z,446.00
2023-02-14T04:09:08.660Z,444.00
2023-02-14T04:10:08.605Z,446.00
2023-02-14T04:11:08.566Z,444.00
2023-02-14T04:12:08.513Z,441.00
2023-02-14T04:13:08.468Z,443.00
2023-02-14T04:14:08.430Z,445.00
2023-02-14T04:15:08.396Z,443.00
2023-02-14T04:16:08.349Z,442.00
2023-02-14T04:17:08.285Z,443.00
2023-02-14T04:18:08.208Z,444.00
2023-02-14T04:19:08.188Z,444.00
2023-02-14T04:20:08.148Z,446.00
2023-02-14T04:21:08.116Z,444.00
2023-02-14T04:22:08.022Z,443.00
2023-02-14T04:23:07.995Z,444.00
2023-02-14T04:24:07.923Z,444.00
2023-02-14T04:25:07.938Z,443.00
2023-02-14T04:26:07.842Z,447.00
2023-02-14T04:27:07.801Z,446.00
2023-02-14T04:28:07.765Z,450.00
2023-02-14T04:29:07.695Z,446.00
2023-02-14T04:30:07.794Z,446.00
2023-02-14T04:31:07.703Z,450.00
2023-02-14T04:32:07.628Z,451.00
2023-02-14T04:33:07.517Z,448.00
2023-02-14T04:34:07.474Z,444.00
2023-02-14T04:35:07.438Z,444.00
2023-02-14T04:36:07.363Z,442.00
2023-02-14T04:37:07.326Z,444.00
2023-02-14T04:38:07.292Z,443.00
2023-02-14T04:39:07.213Z,444.00
2023-02-14T04:40:08.152Z,444.00
2023-02-14T04:41:07.119Z,443.00
2023-02-14T04:42:07.091Z,442.00
2023-02-14T04:43:07.048Z,447.00
2023-02-14T04:44:06.994Z,446.00
2023-02-14T04:45:06.919Z,444.00
2023-02-14T04:46:06.964Z,443.00
2023-02-14T04:47:06.847Z,443.00
2023-02-14T04:48:06.839Z,442.00
2023-02-14T04:49:06.755Z,443.00
2023-02-14T04:50:06.694Z,442.00
2023-02-14T04:51:06.672Z,442.00
2023-02-14T04:52:06.603Z,440.00
2023-02-14T04:53:06.559Z,442.00
2023-02-14T04:54:06.506Z,445.00
2023-02-14T04:55:06.509Z,451.00
2023-02-14T04:56:06.423Z,449.00
2023-02-14T04:57:06.373Z,447.00
2023-02-14T04:58:06.311Z,448.00
2023-02-14T04:59:06.272Z,443.00
2023-02-14T05:00:06.225Z,443.00
2023-02-14T05:01:06.304Z,441.00
2023-02-14T05:02:06.186Z,444.00
2023-02-14T05:03:06.066Z,447.00
2023-02-14T05:04:06.025Z,443.00
2023-02-14T05:05:05.997Z,439.00
2023-02-14T05:06:05.924Z,439.00
2023-02-14T05:07:05.874Z,442.00
2023-02-14T05:08:05.814Z,440.00
2023-02-14T05:09:05.773Z,437.00
2023-02-14T05:10:05.727Z,438.00
2023-02-14T05:11:05.662Z,441.00
2023-02-14T05:12:05.613Z,445.00
2023-02-14T05:13:05.572Z,443.00
2023-02-14T05:14:05.523Z,441.00
2023-02-14T05:15:05.432Z,440.00
2023-02-14T05:16:05.463Z,442.00
2023-02-14T05:17:05.347Z,443.00
2023-02-14T05:18:05.323Z,442.00
2023-02-14T05:19:05.253Z,443.00
2023-02-14T05:20:05.196Z,442.00
2023-02-14T05:21:05.163Z,437.00
2023-02-14T05:22:05.099Z,435.00
2023-02-14T05:23:05.028Z,439.00
2023-02-14T05:24:04.977Z,436.00
2023-02-14T05:25:04.947Z,440.00
2023-02-14T05:26:04.858Z,437.00
2023-02-14T05:27:04.804Z,437.00
2023-02-14T05:28:04.803Z,439.00
2023-02-14T05:29:04.693Z,438.00
2023-02-14T05:30:04.687Z,443.00
2023-02-14T05:31:04.807Z,442.00
2023-02-14T05:32:04.539Z,437.00
2023-02-14T05:33:04.468Z,437.00
2023-02-14T05:34:04.417Z,440.00
2023-02-14T05:35:04.362Z,444.00
2023-02-14T05:36:04.333Z,441.00
2023-02-14T05:37:04.229Z,436.00
2023-02-14T05:38:04.202Z,438.00
2023-02-14T05:39:04.154Z,437.00
2023-02-14T05:40:04.085Z,442.00
2023-02-14T05:41:04.065Z,440.00
2023-02-14T05:42:03.975Z,440.00
2023-02-14T05:43:03.931Z,441.00
2023-02-14T05:44:03.910Z,434.00
2023-02-14T05:45:03.878Z,437.00
2023-02-14T05:46:03.829Z,441.00
2023-02-14T05:47:03.765Z,442.00
2023-02-14T05:48:03.653Z,438.00
2023-02-14T05:49:03.607Z,439.00
2023-02-14T05:50:03.567Z,438.00
2023-02-14T05:51:03.517Z,436.00
2023-02-14T05:52:03.478Z,439.00
2023-02-14T05:53:03.412Z,439.00
2023-02-14T05:54:03.397Z,439.00
2023-02-14T05:55:03.285Z,438.00
2023-02-14T05:56:03.253Z,436.00
2023-02-14T05:57:03.199Z,434.00
2023-02-14T05:58:03.152Z,435.00
2023-02-14T05:59:03.085Z,436.00
2023-02-14T06:00:03.039Z,439.00
2023-02-14T06:01:03.128Z,439.00
2023-02-14T06:02:02.991Z,440.00
2023-02-14T06:03:02.873Z,437.00
2023-02-14T06:04:02.977Z,439.00
2023-02-14T06:05:02.757Z,437.00
2023-02-14T06:06:02.704Z,435.00
2023-02-14T06:07:02.673Z,431.00
2023-02-14T06:08:02.608Z,431.00
2023-02-14T06:09:02.586Z,433.00
2023-02-14T06:10:02.498Z,433.00
2023-02-14T06:11:02.649Z,436.00
2023-02-14T06:12:02.411Z,432.00
2023-02-14T06:13:02.357Z,436.00
2023-02-14T06:14:02.287Z,435.00
2023-02-14T06:15:02.236Z,436.00
2023-02-14T06:16:02.149Z,439.00
2023-02-14T06:17:02.271Z,438.00
2023-02-14T06:18:02.058Z,440.00
2023-02-14T06:19:02.120Z,439.00
2023-02-14T06:20:02.018Z,440.00
2023-02-14T06:21:02.288Z,443.00
2023-02-14T06:22:01.901Z,446.00
2023-02-14T06:23:01.841Z,443.00
2023-02-14T06:24:01.767Z,442.00
2023-02-14T06:25:01.702Z,438.00
2023-02-14T06:26:01.673Z,437.00
2023-02-14T06:27:01.629Z,438.00
2023-02-14T06:28:01.580Z,435.00
2023-02-14T06:29:01.504Z,435.00
2023-02-14T06:30:01.531Z,435.00
2023-02-14T06:31:01.836Z,440.00
2023-02-14T06:32:01.508Z,439.00
2023-02-14T06:33:01.336Z,442.00
2023-02-14T06:34:01.269Z,442.00
2023-02-14T06:35:01.230Z,441.00
2023-02-14T06:36:01.199Z,443.00
2023-02-14T06:37:01.166Z,441.00
2023-02-14T06:38:01.069Z,440.00
2023-02-14T06:45:01.192Z,441.00
2023-02-14T07:14:59.209Z,446.00
2023-02-14T07:17:58.998Z,445.00
2023-02-14T07:19:58.925Z,450.00
2023-02-14T07:20:59.133Z,451.00
2023-02-14T07:22:58.738Z,448.00
2023-02-14T07:24:58.658Z,447.00
2023-02-14T07:25:58.573Z,451.00
2023-02-14T07:26:58.569Z,451.00
2023-02-14T07:27:58.527Z,456.00
2023-02-14T07:28:58.501Z,451.00
2023-02-14T07:29:58.424Z,452.00
2023-02-14T07:30:58.836Z,453.00
2023-02-14T07:31:58.463Z,457.00
2023-02-14T07:32:58.241Z,452.00
2023-02-14T07:33:58.217Z,458.00
2023-02-14T07:34:58.134Z,450.00
2023-02-14T07:35:58.075Z,449.00
2023-02-14T07:36:58.127Z,449.00
2023-02-14T07:37:57.960Z,450.00
2023-02-14T07:38:57.955Z,451.00
2023-02-14T07:39:57.864Z,455.00
2023-02-14T07:40:58.112Z,454.00
2023-02-14T07:41:57.780Z,449.00
2023-02-14T07:42:57.722Z,450.00
2023-02-14T07:43:57.670Z,458.00
2023-02-14T07:44:57.598Z,459.00
2023-02-14T07:45:57.608Z,463.00
2023-02-14T07:46:57.541Z,459.00
2023-02-14T07:47:57.753Z,455.00
2023-02-14T07:48:57.472Z,456.00
2023-02-14T07:49:57.446Z,459.00
2023-02-14T07:50:57.333Z,457.00
2023-02-14T07:51:57.303Z,462.00
2023-02-14T07:52:57.226Z,458.00
2023-02-14T07:53:57.196Z,459.00
2023-02-14T07:54:57.110Z,458.00
2023-02-14T07:55:57.090Z,459.00
2023-02-14T07:56:57.028Z,460.00
2023-02-14T07:57:56.994Z,460.00
2023-02-14T07:58:56.940Z,458.00
2023-02-14T07:59:56.899Z,457.00
2023-02-14T08:00:56.976Z,454.00
2023-02-14T08:01:56.812Z,455.00
2023-02-14T08:02:56.764Z,453.00
2023-02-14T08:03:56.686Z,453.00
2023-02-14T08:04:56.694Z,452.00
2023-02-14T08:05:56.631Z,454.00
2023-02-14T08:06:56.617Z,454.00
2023-02-14T08:07:56.641Z,455.00
2023-02-14T08:08:56.447Z,456.00
2023-02-14T08:09:56.453Z,457.00
2023-02-14T08:10:56.408Z,458.00
2023-02-14T08:11:56.318Z,457.00
2023-02-14T08:12:56.294Z,454.00
2023-02-14T08:13:56.281Z,456.00
2023-02-14T08:14:56.268Z,457.00
2023-02-14T08:15:56.150Z,452.00
2023-02-14T08:16:56.066Z,455.00
2023-02-14T08:17:55.995Z,452.00
2023-02-14T08:18:56.067Z,454.00
2023-02-14T08:19:56.012Z,453.00
2023-02-14T08:20:55.931Z,455.00
2023-02-14T08:21:55.823Z,453.00
2023-02-14T08:22:55.779Z,454.00
2023-02-14T08:23:55.755Z,447.00
2023-02-14T08:24:55.693Z,449.00
2023-02-14T08:25:55.667Z,449.00
2023-02-14T08:26:55.613Z,450.00
2023-02-14T08:27:55.564Z,449.00
2023-02-14T08:28:55.488Z,449.00
2023-02-14T08:29:55.482Z,447.00
2023-02-14T08:30:55.433Z,445.00
2023-02-14T08:31:55.450Z,444.00
2023-02-14T08:32:55.336Z,444.00
2023-02-14T08:33:55.262Z,445.00
2023-02-14T08:34:55.264Z,442.00
2023-02-14T08:35:55.156Z,442.00
2023-02-14T08:36:55.135Z,440.00
2023-02-14T08:37:55.021Z,442.00
2023-02-14T08:38:54.998Z,441.00
2023-02-14T08:39:54.929Z,444.00
2023-02-14T08:40:54.909Z,441.00
2023-02-14T08:41:54.847Z,440.00
2023-02-14T08:42:54.768Z,442.00
2023-02-14T08:43:54.797Z,439.00
2023-02-14T08:44:54.666Z,440.00
2023-02-14T08:45:54.665Z,441.00
2023-02-14T08:46:54.550Z,441.00
2023-02-14T08:47:54.468Z,441.00
2023-02-14T08:48:54.435Z,439.00
2023-02-14T08:49:54.344Z,437.00
2023-02-14T08:50:54.355Z,437.00
2023-02-14T08:51:54.255Z,439.00
2023-02-14T08:52:54.210Z,437.00
2023-02-14T08:53:54.132Z,440.00
2023-02-14T08:54:54.065Z,443.00
2023-02-14T08:55:54.009Z,442.00
2023-02-14T08:56:53.922Z,442.00
2023-02-14T08:57:53.894Z,441.00
2023-02-14T08:58:53.795Z,442.00
2023-02-14T08:59:53.737Z,439.00
2023-02-14T09:00:53.724Z,442.00
2023-02-14T09:01:53.625Z,445.00
2023-02-14T09:02:53.565Z,444.00
2023-02-14T09:03:53.668Z,441.00
2023-02-14T09:04:54.269Z,439.00
2023-02-14T09:05:53.770Z,439.00
2023-02-14T09:06:53.258Z,438.00
2023-02-14T09:07:53.195Z,439.00
2023-02-14T09:08:53.153Z,440.00
2023-02-14T09:09:53.031Z,442.00
2023-02-14T09:10:53.067Z,442.00
2023-02-14T09:11:52.916Z,444.00
2023-02-14T09:12:52.860Z,444.00
2023-02-14T09:13:52.734Z,444.00
2023-02-14T09:14:52.708Z,445.00
2023-02-14T09:15:52.617Z,446.00
2023-02-14T09:16:52.647Z,445.00
2023-02-14T09:17:52.511Z,444.00
2023-02-14T09:18:52.428Z,441.00
2023-02-14T09:19:52.345Z,440.00
2023-02-14T09:20:52.289Z,439.00
2023-02-14T09:21:52.240Z,443.00
2023-02-14T09:22:52.118Z,445.00
2023-02-14T09:23:52.047Z,444.00
2023-02-14T09:24:51.980Z,442.00
2023-02-14T09:25:51.891Z,440.00
2023-02-14T09:26:51.813Z,440.00
2023-02-14T09:27:51.760Z,438.00
2023-02-14T09:28:51.665Z,438.00
2023-02-14T09:29:51.641Z,437.00
2023-02-14T09:30:54.311Z,436.00
2023-02-14T09:31:51.528Z,434.00
2023-02-14T09:32:51.359Z,437.00
2023-02-14T09:33:51.324Z,435.00
2023-02-14T09:34:51.226Z,435.00
2023-02-14T09:35:51.159Z,436.00
2023-02-14T09:36:51.115Z,437.00
2023-02-14T09:37:51.000Z,434.00
2023-02-14T09:38:50.932Z,434.00
2023-02-14T09:39:50.930Z,439.00
2023-02-14T09:40:50.789Z,440.00
2023-02-14T09:41:50.756Z,440.00
2023-02-14T09:42:50.632Z,438.00
2023-02-14T09:43:50.591Z,438.00
2023-02-14T09:44:50.490Z,438.00
2023-02-14T09:45:50.449Z,436.00
2023-02-14T09:46:50.353Z,436.00
2023-02-14T09:47:50.261Z,437.00
2023-02-14T09:48:50.188Z,438.00
2023-02-14T09:49:50.157Z,440.00
2023-02-14T09:50:50.071Z,440.00
2023-02-14T09:51:50.036Z,441.00
2023-02-14T09:52:49.877Z,444.00
2023-02-14T09:53:49.770Z,445.00
2023-02-14T09:54:49.716Z,446.00
2023-02-14T09:55:49.637Z,446.00
2023-02-14T09:56:51.726Z,445.00
2023-02-14T09:57:49.556Z,445.00
2023-02-14T09:58:49.462Z,445.00
2023-02-14T09:59:49.407Z,445.00
2023-02-14T10:00:49.344Z,445.00
2023-02-14T10:01:49.587Z,445.00
2023-02-14T10:02:49.130Z,445.00
2023-02-14T10:03:49.056Z,446.00
2023-02-14T10:04:48.987Z,444.00
2023-02-14T10:05:48.887Z,446.00
2023-02-14T10:06:48.856Z,444.00
2023-02-14T10:07:48.737Z,447.00
2023-02-14T10:08:48.654Z,447.00
2023-02-14T10:09:48.615Z,449.00
2023-02-14T10:10:48.475Z,448.00
2023-02-14T10:11:48.545Z,450.00
2023-02-14T10:12:48.317Z,449.00
2023-02-14T10:13:48.215Z,451.00
2023-02-14T10:14:48.183Z,450.00
2023-02-14T10:15:48.072Z,451.00
2023-02-14T10:16:47.997Z,452.00
2023-02-14T10:17:47.892Z,449.00
2023-02-14T10:18:47.810Z,449.00
2023-02-14T10:19:47.727Z,448.00
2023-02-14T10:20:47.652Z,446.00
2023-02-14T10:21:48.057Z,444.00
2023-02-14T10:22:47.521Z,444.00
2023-02-14T10:23:47.416Z,444.00
2023-02-14T10:24:47.370Z,445.00
2023-02-14T10:25:47.240Z,442.00
2023-02-14T10:26:47.135Z,441.00
2023-02-14T10:27:47.110Z,442.00
2023-02-14T10:28:46.985Z,444.00
2023-02-14T10:29:46.941Z,442.00
2023-02-14T10:30:46.942Z,442.00
2023-02-14T10:31:46.815Z,438.00
2023-02-14T10:32:46.664Z,439.00
2023-02-14T10:33:46.512Z,443.00
2023-02-14T10:34:46.430Z,443.00
2023-02-14T10:35:46.332Z,441.00
2023-02-14T10:36:46.265Z,440.00
2023-02-14T10:37:46.176Z,441.00
2023-02-14T10:38:46.082Z,443.00
2023-02-14T10:39:45.987Z,443.00
2023-02-14T10:40:46.809Z,445.00
2023-02-14T10:41:45.842Z,444.00
2023-02-14T10:42:45.753Z,443.00
2023-02-14T10:43:45.668Z,445.00
2023-02-14T10:44:45.560Z,447.00
2023-02-14T10:45:45.506Z,447.00
2023-02-14T10:46:45.369Z,444.00
2023-02-14T10:47:45.319Z,445.00
2023-02-14T10:48:45.214Z,444.00
2023-02-14T10:49:45.122Z,441.00
2023-02-14T10:50:45.099Z,440.00
2023-02-14T10:51:44.942Z,440.00
2023-02-14T10:52:44.889Z,440.00
2023-02-14T10:53:44.785Z,440.00
2023-02-14T10:54:44.705Z,443.00
2023-02-14T10:55:44.619Z,440.00
2023-02-14T10:56:44.527Z,440.00
2023-02-14T10:57:44.474Z,439.00
2023-02-14T10:58:44.371Z,438.00
2023-02-14T10:59:44.274Z,436.00
2023-02-14T11:00:44.172Z,438.00
2023-02-14T11:01:44.121Z,440.00
2023-02-14T11:02:44.000Z,441.00
2023-02-14T11:03:44.332Z,442.00
2023-02-14T11:04:43.807Z,444.00
2023-02-14T11:05:46.127Z,443.00
2023-02-14T11:06:43.615Z,442.00
2023-02-14T11:07:43.506Z,443.00
2023-02-14T11:08:43.459Z,444.00
2023-02-14T11:09:43.378Z,445.00
2023-02-14T11:10:43.264Z,443.00
2023-02-14T11:11:43.188Z,443.00
2023-02-14T11:12:43.072Z,444.00
2023-02-14T11:13:42.982Z,442.00
2023-02-14T11:14:42.885Z,445.00
2023-02-14T11:15:42.784Z,444.00
2023-02-14T11:16:42.727Z,441.00
2023-02-14T11:17:42.605Z,438.00
2023-02-14T11:18:42.546Z,437.00
2023-02-14T11:19:42.455Z,436.00
2023-02-14T11:20:42.324Z,435.00
2023-02-14T11:21:42.265Z,436.00
2023-02-14T11:22:42.164Z,439.00
2023-02-14T11:23:42.075Z,442.00
2023-02-14T11:24:41.966Z,441.00
2023-02-14T11:25:41.872Z,439.00
2023-02-14T11:26:41.775Z,440.00
2023-02-14T11:27:41.687Z,437.00
2023-02-14T11:28:42.147Z,439.00
2023-02-14T11:29:41.476Z,438.00
2023-02-14T11:30:41.475Z,437.00
2023-02-14T11:31:41.411Z,438.00
2023-02-14T11:32:41.214Z,437.00
2023-02-14T11:33:41.155Z,434.00
2023-02-14T11:34:41.059Z,434.00
2023-02-14T11:35:40.918Z,436.00
2023-02-14T11:36:40.880Z,436.00
2023-02-14T11:37:40.739Z,436.00
2023-02-14T11:38:40.679Z,438.00
2023-02-14T11:39:40.582Z,437.00
2023-02-14T11:40:40.499Z,438.00
2023-02-14T11:41:40.441Z,439.00
2023-02-14T11:42:40.290Z,438.00
2023-02-14T11:43:40.212Z,436.00
2023-02-14T11:44:40.102Z,437.00
2023-02-14T11:45:40.032Z,435.00
2023-02-14T11:46:52.379Z,434.00
2023-02-14T11:47:40.839Z,435.00
2023-02-14T11:48:39.791Z,436.00
2023-02-14T11:49:39.691Z,437.00
2023-02-14T11:50:39.556Z,437.00
2023-02-14T11:51:39.493Z,439.00
2023-02-14T11:52:39.393Z,442.00
2023-02-14T11:53:39.293Z,443.00
2023-02-14T11:54:39.203Z,442.00
2023-02-14T11:55:39.229Z,440.00
2023-02-14T11:56:39.078Z,439.00
2023-02-14T11:57:38.915Z,441.00
2023-02-14T11:58:38.819Z,442.00
2023-02-14T11:59:38.713Z,441.00
2023-02-14T12:00:38.631Z,438.00
2023-02-14T12:01:38.551Z,439.00
2023-02-14T12:02:38.516Z,441.00
2023-02-14T12:03:38.407Z,444.00
2023-02-14T12:04:45.933Z,443.00
2023-02-14T12:05:39.177Z,442.00
2023-02-14T12:06:38.042Z,444.00
2023-02-14T12:07:37.954Z,448.00
2023-02-14T12:08:37.882Z,450.00
2023-02-14T12:09:37.766Z,448.00
2023-02-14T12:10:37.680Z,448.00
2023-02-14T12:11:37.605Z,446.00
2023-02-14T12:12:37.478Z,446.00
2023-02-14T12:13:37.359Z,445.00
2023-02-14T12:14:37.274Z,445.00
2023-02-14T12:15:37.579Z,444.00
2023-02-14T12:16:37.092Z,444.00
2023-02-14T12:17:36.997Z,443.00
2023-02-14T12:18:36.880Z,440.00
2023-02-14T12:19:36.795Z,441.00
2023-02-14T12:20:36.676Z,438.00
2023-02-14T12:21:36.557Z,441.00
2023-02-14T12:22:36.481Z,441.00
2023-02-14T12:23:36.351Z,438.00
2023-02-14T12:24:36.264Z,440.00
2023-02-14T12:25:36.178Z,440.00
2023-02-14T12:26:36.090Z,437.00
2023-02-14T12:27:35.967Z,435.00
2023-02-14T12:28:36.009Z,437.00
2023-02-14T12:29:35.752Z,436.00
2023-02-14T12:30:35.652Z,438.00
2023-02-14T12:31:35.630Z,441.00
2023-02-14T12:32:35.450Z,442.00
2023-02-14T12:33:35.348Z,443.00
2023-02-14T12:34:35.266Z,444.00
2023-02-14T12:35:35.172Z,444.00
2023-02-14T12:36:35.055Z,445.00
2023-02-14T12:37:34.928Z,444.00
2023-02-14T12:38:34.868Z,443.00
2023-02-14T12:39:34.751Z,443.00
2023-02-14T12:40:34.673Z,445.00
2023-02-14T12:41:34.536Z,445.00
2023-02-14T12:42:34.447Z,447.00
2023-02-14T12:43:34.338Z,448.00
2023-02-14T12:44:34.230Z,446.00
2023-02-14T12:45:34.161Z,442.00
2023-02-14T12:46:34.060Z,442.00
2023-02-14T12:47:33.918Z,444.00
2023-02-14T12:48:33.828Z,445.00
2023-02-14T12:49:33.714Z,446.00
2023-02-14T12:50:33.628Z,445.00
2023-02-14T12:51:33.532Z,444.00
2023-02-14T12:52:33.403Z,444.00
2023-02-14T12:53:33.323Z,442.00
2023-02-14T12:54:33.369Z,441.00
2023-02-14T12:55:33.137Z,441.00
2023-02-14T12:56:33.019Z,442.00
2023-02-14T12:57:32.909Z,442.00
2023-02-14T12:58:32.804Z,440.00
2023-02-14T12:59:32.726Z,439.00
2023-02-14T13:00:32.629Z,436.00
2023-02-14T13:01:38.486Z,435.00
2023-02-14T13:02:33.559Z,436.00
2023-02-14T13:03:32.324Z,437.00
2023-02-14T13:04:32.186Z,436.00
2023-02-14T13:05:32.119Z,435.00
2023-02-14T13:06:31.982Z,435.00
2023-02-14T13:07:31.888Z,437.00
2023-02-14T13:08:31.783Z,436.00
2023-02-14T13:09:31.692Z,438.00
2023-02-14T13:10:31.597Z,439.00
2023-02-14T13:11:31.477Z,439.00
2023-02-14T13:12:31.370Z,439.00
2023-02-14T13:13:31.245Z,440.00
2023-02-14T13:14:31.147Z,439.00
2023-02-14T13:15:31.070Z,439.00
2023-02-14T14:08:25.525Z,445.00
2023-02-14T14:09:25.446Z,442.00
2023-02-14T14:10:25.329Z,440.00
2023-02-14T14:11:25.228Z,439.00
2023-02-14T14:12:25.128Z,440.00
2023-02-14T14:13:24.988Z,441.00
2023-02-14T14:14:24.872Z,442.00
2023-02-14T14:15:24.799Z,441.00
2023-02-14T14:16:24.730Z,441.00
2023-02-14T14:17:24.605Z,442.00
2023-02-14T14:18:24.479Z,442.00
2023-02-14T14:19:24.388Z,443.00
2023-02-14T14:20:24.301Z,441.00
2023-02-14T14:21:24.236Z,444.00
2023-02-14T14:22:24.100Z,443.00
2023-02-14T14:23:23.947Z,442.00
2023-02-14T14:24:23.864Z,443.00
2023-02-14T14:25:23.764Z,443.00
2023-02-14T14:26:23.649Z,442.00
2023-02-14T14:27:23.554Z,444.00
2023-02-14T14:28:23.435Z,446.00
2023-02-14T14:29:23.347Z,445.00
2023-02-14T14:30:23.482Z,441.00
2023-02-14T14:31:23.217Z,440.00
2023-02-14T14:32:23.388Z,441.00
2023-02-14T14:33:22.944Z,443.00
2023-02-14T14:34:22.792Z,442.00
2023-02-14T14:35:22.688Z,441.00
2023-02-14T14:36:22.591Z,441.00
2023-02-14T14:37:22.526Z,438.00
2023-02-14T14:38:22.404Z,440.00
2023-02-14T14:39:22.313Z,438.00
2023-02-14T14:40:22.148Z,437.00
2023-02-14T14:41:22.111Z,436.00
2023-02-14T14:42:22.006Z,436.00
2023-02-14T14:43:21.886Z,437.00
2023-02-14T14:44:21.734Z,436.00
2023-02-14T14:45:21.657Z,439.00
2023-02-14T14:46:21.539Z,441.00
2023-02-14T14:47:21.516Z,442.00
2023-02-14T14:48:21.402Z,444.00
2023-02-14T14:49:21.228Z,441.00
2023-02-14T14:50:21.140Z,442.00
2023-02-14T14:51:21.015Z,442.00
2023-02-14T16:07:13.935Z,437.00
2023-02-14T16:08:13.865Z,440.00
2023-02-14T16:09:13.777Z,439.00
2023-02-14T16:10:13.691Z,440.00
2023-02-14T16:11:13.622Z,438.00
2023-02-14T16:12:13.560Z,438.00
2023-02-14T16:13:13.436Z,439.00
2023-02-14T16:14:13.322Z,439.00
2023-02-14T16:15:13.246Z,437.00